Time;durP1;ratioP1;P1;durP2;ratioP2;P2;SDS_P1;SDS_P2;PMS_P1;PMS_P2;Temp;Humidity;BMP_temperature;BMP_pressure;BME280_temperature;BME280_humidity;BME280_pressure;Samples;Min_cycle;Max_cycle;Signal;HPM_P1;HPM_P2
2023/07/29 00:02:07;;;;;;;4.68;1.73;;;;;;;22.96;64.30;100808.66;5011740;28;20539;-44
2023/07/29 00:04:33;;;;;;;3.30;1.20;;;;;;;22.80;64.69;100801.31;5011693;28;20145;-45
2023/07/29 00:06:58;;;;;;;4.07;1.40;;;;;;;22.86;63.75;100804.63;5012062;28;20030;-45
2023/07/29 00:09:23;;;;;;;4.70;1.48;;;;;;;22.61;64.56;100794.00;5011809;28;20045;-43
2023/07/29 00:11:49;;;;;;;4.80;1.38;;;;;;;22.48;64.23;100795.38;5011619;28;20045;-44
2023/07/29 00:14:14;;;;;;;3.88;1.50;;;;;;;22.49;64.13;100802.44;5011980;28;20030;-43
2023/07/29 00:16:39;;;;;;;5.53;1.40;;;;;;;22.40;64.82;100801.88;5012389;28;20123;-45
2023/07/29 00:19:06;;;;;;;3.33;1.48;;;;;;;22.42;63.88;100795.63;5012501;28;20096;-49
2023/07/29 00:21:31;;;;;;;3.15;1.40;;;;;;;22.45;63.62;100799.94;5011477;28;20039;-46
2023/07/29 00:24:01;;;;;;;3.00;1.33;;;;;;;22.41;63.26;100793.00;5012396;28;20495;-45
2023/07/29 00:26:28;;;;;;;2.70;1.40;;;;;;;22.30;63.61;100800.50;5011552;28;20413;-43
2023/07/29 00:28:54;;;;;;;3.95;1.48;;;;;;;22.24;63.67;100794.50;5012020;28;20474;-47
2023/07/29 00:31:19;;;;;;;3.05;1.50;;;;;;;22.21;63.67;100793.72;5010936;28;20124;-50
2023/07/29 00:33:45;;;;;;;3.58;1.48;;;;;;;22.14;63.69;100795.72;5011973;28;20513;-43
2023/07/29 00:36:10;;;;;;;3.25;1.40;;;;;;;22.07;63.39;100794.22;5011761;28;20026;-44
2023/07/29 00:38:36;;;;;;;2.97;1.40;;;;;;;21.84;64.28;100791.44;5011052;28;20054;-45
2023/07/29 00:41:03;;;;;;;3.05;1.30;;;;;;;21.98;63.90;100783.91;5010804;28;20064;-48
2023/07/29 00:43:28;;;;;;;2.42;1.30;;;;;;;21.91;64.34;100786.78;5026077;28;20048;-44
2023/07/29 00:45:54;;;;;;;3.50;1.48;;;;;;;21.79;64.13;100788.97;5011526;28;20037;-45
2023/07/29 00:48:20;;;;;;;4.03;1.30;;;;;;;21.78;64.46;100781.91;5011445;28;20062;-44
2023/07/29 00:50:46;;;;;;;4.88;1.50;;;;;;;21.71;64.74;100785.69;5011885;28;20036;-43
2023/07/29 00:53:11;;;;;;;3.15;1.60;;;;;;;21.76;65.00;100785.56;5012692;28;20030;-43
2023/07/29 00:55:37;;;;;;;3.67;1.60;;;;;;;21.74;65.36;100784.72;5011575;28;20416;-45
2023/07/29 00:58:03;;;;;;;3.25;1.40;;;;;;;21.79;65.19;100785.44;5012293;28;20026;-43
2023/07/29 01:00:28;;;;;;;4.53;1.50;;;;;;;21.84;64.95;100781.69;5011659;28;20038;-45
2023/07/29 01:02:54;;;;;;;2.80;1.40;;;;;;;21.89;64.98;100778.91;5010391;28;20026;-47
2023/07/29 01:05:20;;;;;;;3.22;1.48;;;;;;;21.91;65.18;100784.13;5011691;28;20052;-46
2023/07/29 01:08:08;;;;;;;4.15;1.52;;;;;;;21.86;65.54;100774.56;5012233;28;20075;-45
2023/07/29 01:10:51;;;;;;;5.50;1.50;;;;;;;21.69;66.85;100781.38;5010940;28;20034;-45
2023/07/29 01:13:37;;;;;;;4.90;1.40;;;;;;;21.89;66.13;100773.59;5010264;28;20103;-44
2023/07/29 01:16:11;;;;;;;2.40;1.30;;;;;;;21.80;66.56;100771.25;5010779;28;20040;-42
2023/07/29 01:18:38;;;;;;;2.60;1.50;;;;;;;21.83;65.90;100766.69;5010297;28;20500;-46
2023/07/29 01:21:07;;;;;;;3.55;1.50;;;;;;;21.88;66.19;100761.25;5025371;28;20057;-47
2023/07/29 01:23:36;;;;;;;3.70;1.48;;;;;;;21.77;66.45;100758.94;5010297;28;20038;-47
2023/07/29 01:26:03;;;;;;;2.95;1.42;;;;;;;21.80;66.20;100757.97;5010533;28;20045;-46
2023/07/29 01:28:28;;;;;;;4.05;1.50;;;;;;;21.77;66.29;100758.94;5010415;28;20037;-47
2023/07/29 01:31:02;;;;;;;4.05;1.50;;;;;;;21.76;66.83;100759.88;5010316;28;20030;-43
2023/07/29 01:33:39;;;;;;;3.40;1.35;;;;;;;21.79;66.60;100757.09;5010190;28;20095;-45
2023/07/29 01:36:17;;;;;;;3.03;1.58;;;;;;;21.66;67.34;100763.75;5010394;28;20096;-43
2023/07/29 01:38:44;;;;;;;4.68;1.45;;;;;;;21.66;67.14;100758.44;5010108;28;20040;-45
2023/07/29 01:41:10;;;;;;;4.85;1.40;;;;;;;21.70;67.28;100760.09;5009651;28;20466;-44
2023/07/29 01:43:43;;;;;;;3.08;1.35;;;;;;;21.77;67.17;100760.75;5009890;28;20707;-43
2023/07/29 01:46:12;;;;;;;3.67;1.40;;;;;;;21.66;67.29;100753.13;5010401;28;20037;-44
2023/07/29 01:48:38;;;;;;;4.57;1.35;;;;;;;21.69;67.52;100754.84;5009847;28;20280;-46
2023/07/29 01:51:05;;;;;;;2.55;1.30;;;;;;;21.65;67.68;100746.09;5008038;28;20034;-45
2023/07/29 01:53:30;;;;;;;3.72;1.35;;;;;;;21.68;67.88;100747.78;5009766;28;20412;-44
2023/07/29 01:55:56;;;;;;;4.32;1.48;;;;;;;21.72;67.19;100752.94;5010329;28;20034;-46
2023/07/29 01:58:22;;;;;;;5.75;1.40;;;;;;;21.69;67.45;100746.88;5009783;28;20040;-44
2023/07/29 02:00:47;;;;;;;4.63;1.40;;;;;;;21.69;67.64;100745.09;5009600;28;20038;-46
2023/07/29 02:03:13;;;;;;;4.18;1.38;;;;;;;21.67;67.61;100735.44;5010140;28;20385;-46
2023/07/29 02:05:38;;;;;;;4.55;1.40;;;;;;;21.63;67.83;100744.44;5009305;28;21335;-48
2023/07/29 02:08:03;;;;;;;3.13;1.40;;;;;;;21.45;69.02;100745.91;5009988;28;20038;-46
2023/07/29 02:10:29;;;;;;;3.78;1.40;;;;;;;21.31;69.77;100740.19;5009349;28;20136;-45
2023/07/29 02:12:54;;;;;;;2.88;1.40;;;;;;;21.52;68.63;100741.28;5009246;28;20120;-46
2023/07/29 02:15:19;;;;;;;3.47;1.65;;;;;;;21.50;68.86;100737.81;5009479;28;20030;-45
2023/07/29 02:17:45;;;;;;;4.60;1.70;;;;;;;21.46;69.05;100737.06;5009967;28;20531;-43
2023/07/29 02:20:10;;;;;;;4.35;1.50;;;;;;;21.58;68.68;100736.63;5009761;28;20125;-46
2023/07/29 02:22:36;;;;;;;2.83;1.40;;;;;;;21.53;68.51;100727.94;5008972;28;20081;-44
2023/07/29 02:25:02;;;;;;;4.22;1.50;;;;;;;21.46;68.78;100731.75;5008643;28;20030;-46
2023/07/29 02:27:28;;;;;;;3.85;1.55;;;;;;;21.56;68.23;100727.84;5009407;28;20041;-45
2023/07/29 02:29:53;;;;;;;3.15;1.40;;;;;;;21.45;68.30;100722.91;5009492;28;20033;-45
2023/07/29 02:32:19;;;;;;;2.88;1.40;;;;;;;21.60;67.71;100726.81;5009199;28;20399;-43
2023/07/29 02:34:45;;;;;;;3.95;1.48;;;;;;;21.56;67.88;100721.69;5009501;28;20038;-46
2023/07/29 02:37:10;;;;;;;3.10;1.38;;;;;;;21.41;68.46;100723.03;5009111;28;20038;-44
2023/07/29 02:39:36;;;;;;;3.13;1.50;;;;;;;21.49;68.03;100717.50;5009194;28;20038;-47
2023/07/29 02:42:02;;;;;;;3.58;1.50;;;;;;;21.43;68.15;100710.63;5009210;28;20040;-47
2023/07/29 02:44:27;;;;;;;3.40;1.33;;;;;;;21.57;68.01;100708.38;5009026;28;20124;-44
2023/07/29 02:46:54;;;;;;;4.32;1.50;;;;;;;21.38;68.76;100701.94;5009673;28;20034;-44
2023/07/29 02:49:19;;;;;;;3.45;1.30;;;;;;;21.56;67.89;100697.81;5009403;28;20058;-46
2023/07/29 02:51:45;;;;;;;3.35;1.60;;;;;;;21.45;68.36;100703.47;5009154;28;20091;-44
2023/07/29 02:54:10;;;;;;;3.90;1.60;;;;;;;21.60;67.96;100697.63;5009426;28;20121;-45
2023/07/29 02:56:35;;;;;;;3.55;1.52;;;;;;;21.61;67.84;100707.34;5009317;28;20037;-47
2023/07/29 02:59:01;;;;;;;4.10;1.65;;;;;;;21.52;68.02;100705.00;5024585;28;20142;-45
2023/07/29 03:01:26;;;;;;;4.80;1.50;;;;;;;21.45;68.04;100714.97;5008491;28;20053;-49
2023/07/29 03:03:52;;;;;;;5.65;1.45;;;;;;;21.42;68.41;100708.88;5010749;28;20136;-44
2023/07/29 03:06:17;;;;;;;6.45;1.65;;;;;;;21.45;68.45;100700.84;5013631;28;20030;-42
2023/07/29 03:08:43;;;;;;;3.13;1.50;;;;;;;21.43;68.17;100708.84;5012987;28;20579;-46
2023/07/29 03:11:10;;;;;;;4.97;1.50;;;;;;;21.41;68.44;100708.00;5012890;28;20033;-44
2023/07/29 03:13:37;;;;;;;4.78;1.50;;;;;;;21.44;68.50;100712.34;5012812;28;20443;-45
2023/07/29 03:16:09;;;;;;;5.10;1.52;;;;;;;21.41;68.58;100717.75;5013422;28;20025;-43
2023/07/29 03:18:35;;;;;;;3.70;1.60;;;;;;;21.45;68.87;100724.69;5013089;28;20129;-44
2023/07/29 03:21:02;;;;;;;4.60;1.65;;;;;;;21.48;69.15;100724.59;5013266;28;20566;-43
2023/07/29 03:23:28;;;;;;;2.28;1.40;;;;;;;21.68;68.22;100722.13;5013160;28;20038;-42
2023/07/29 03:25:58;;;;;;;5.40;1.70;;;;;;;21.61;68.84;100720.59;5014343;28;20382;-48
2023/07/29 03:28:29;;;;;;;3.08;1.63;;;;;;;21.53;68.76;100717.34;5013499;28;20408;-43
2023/07/29 03:30:56;;;;;;;4.00;1.50;;;;;;;21.64;68.47;100709.03;5012605;28;20769;-45
2023/07/29 03:33:21;;;;;;;3.10;1.70;;;;;;;21.69;68.39;100713.25;5012869;28;20084;-45
2023/07/29 03:35:47;;;;;;;6.30;1.63;;;;;;;21.67;68.24;100716.88;5012648;28;20400;-47
2023/07/29 03:38:12;;;;;;;3.33;1.60;;;;;;;21.67;68.07;100708.91;5012582;28;20044;-51
2023/07/29 03:40:39;;;;;;;2.42;1.60;;;;;;;21.66;68.50;100717.78;5012590;28;20038;-47
2023/07/29 03:43:04;;;;;;;4.95;1.55;;;;;;;21.64;68.11;100725.81;5012971;28;20034;-49
2023/07/29 03:45:30;;;;;;;3.67;1.52;;;;;;;21.71;68.25;100729.97;5012066;28;20041;-45
2023/07/29 03:47:55;;;;;;;6.53;1.70;;;;;;;21.58;68.85;100733.13;5012846;28;20038;-46
2023/07/29 03:50:20;;;;;;;5.30;1.60;;;;;;;21.57;68.76;100732.25;5012198;28;20104;-47
2023/07/29 03:52:46;;;;;;;3.55;1.60;;;;;;;21.66;68.81;100723.94;5012073;28;20037;-43
2023/07/29 03:55:11;;;;;;;4.95;1.70;;;;;;;21.80;68.27;100715.53;5012343;28;20441;-48
2023/07/29 03:57:37;;;;;;;5.50;1.95;;;;;;;21.66;68.50;100720.44;5011790;28;20038;-43
2023/07/29 04:00:03;;;;;;;2.72;1.88;;;;;;;21.59;68.25;100719.78;5011949;28;20041;-44
2023/07/29 04:02:28;;;;;;;5.35;2.10;;;;;;;21.69;68.40;100720.34;5011412;28;20033;-45
2023/07/29 04:04:54;;;;;;;6.88;2.00;;;;;;;21.50;69.24;100722.75;5012459;28;20452;-44
2023/07/29 04:07:19;;;;;;;4.25;1.95;;;;;;;21.70;68.47;100727.38;5012222;28;20038;-50
2023/07/29 04:09:44;;;;;;;3.60;1.80;;;;;;;21.65;68.60;100724.88;5012291;28;20038;-44
2023/07/29 04:12:10;;;;;;;3.80;1.88;;;;;;;21.77;68.07;100715.66;5011607;28;20484;-46
2023/07/29 04:14:35;;;;;;;4.50;1.90;;;;;;;21.71;68.46;100706.09;5011566;28;20132;-44
2023/07/29 04:17:01;;;;;;;4.20;2.10;;;;;;;21.68;67.78;100718.59;5012051;28;20041;-47
2023/07/29 04:19:26;;;;;;;4.65;2.15;;;;;;;21.58;68.46;100714.53;5011278;28;20061;-47
2023/07/29 04:21:51;;;;;;;4.65;2.13;;;;;;;21.72;68.13;100718.44;5011630;28;20116;-44
2023/07/29 04:24:17;;;;;;;5.65;2.25;;;;;;;21.61;68.79;100719.72;5011438;28;20034;-44
2023/07/29 04:26:42;;;;;;;5.80;2.05;;;;;;;21.53;69.04;100724.44;5011607;28;20048;-49
2023/07/29 04:29:07;;;;;;;6.57;2.30;;;;;;;21.53;69.01;100727.09;5011885;28;20098;-45
2023/07/29 04:31:33;;;;;;;6.78;2.30;;;;;;;21.57;69.44;100721.63;5010973;28;20030;-44
2023/07/29 04:33:58;;;;;;;6.47;2.30;;;;;;;21.60;68.97;100725.94;5011722;28;20026;-43
2023/07/29 04:36:24;;;;;;;4.70;2.10;;;;;;;21.84;68.42;100728.63;5011299;28;20042;-48
2023/07/29 04:38:49;;;;;;;4.85;2.45;;;;;;;21.59;69.76;100732.19;5011607;28;20083;-48
2023/07/29 04:41:14;;;;;;;6.75;2.50;;;;;;;21.55;69.26;100731.41;5011289;28;20033;-47
2023/07/29 04:43:40;;;;;;;6.25;2.55;;;;;;;21.77;68.67;100728.91;5010515;28;20032;-47
2023/07/29 04:46:08;;;;;;;4.38;2.35;;;;;;;21.84;68.48;100733.06;5011413;28;20091;-46
2023/07/29 04:48:34;;;;;;;3.55;2.20;;;;;;;21.69;68.44;100739.78;5010648;28;20030;-46
2023/07/29 04:50:59;;;;;;;6.00;2.47;;;;;;;21.71;69.05;100732.63;5011060;28;20514;-43
2023/07/29 04:53:24;;;;;;;6.05;2.55;;;;;;;21.56;69.50;100735.81;5010568;28;20120;-45
2023/07/29 04:55:49;;;;;;;3.75;2.30;;;;;;;21.88;68.26;100737.34;5011218;28;20030;-50
2023/07/29 04:58:15;;;;;;;5.97;2.45;;;;;;;21.80;68.92;100737.63;5011207;28;20026;-46
2023/07/29 05:00:40;;;;;;;6.22;2.53;;;;;;;21.86;68.35;100726.78;5011396;28;20485;-45
2023/07/29 05:03:06;;;;;;;4.95;2.40;;;;;;;22.03;68.24;100728.00;5011442;28;20041;-45
2023/07/29 05:05:32;;;;;;;5.55;2.17;;;;;;;22.06;68.09;100730.56;5011398;28;20049;-43
2023/07/29 05:07:57;;;;;;;5.75;2.45;;;;;;;21.97;69.06;100728.22;5011681;28;20030;-44
2023/07/29 05:10:22;;;;;;;7.45;2.30;;;;;;;22.04;68.45;100730.59;5010662;28;20038;-47
2023/07/29 05:12:48;;;;;;;6.65;2.33;;;;;;;22.15;68.39;100727.56;5010457;28;20030;-43
2023/07/29 05:15:14;;;;;;;5.95;2.83;;;;;;;22.05;68.62;100736.78;5010995;28;20108;-46
2023/07/29 05:17:39;;;;;;;5.28;2.17;;;;;;;22.24;68.57;100729.88;5011570;28;20034;-46
2023/07/29 05:20:05;;;;;;;10.30;2.80;;;;;;;22.34;68.04;100725.97;5010967;28;20069;-43
2023/07/29 05:22:30;;;;;;;5.93;2.50;;;;;;;22.45;67.78;100720.22;5010652;28;20030;-45
2023/07/29 05:24:56;;;;;;;6.15;2.60;;;;;;;22.63;66.76;100714.22;5011694;28;20526;-43
2023/07/29 05:27:21;;;;;;;5.50;2.17;;;;;;;22.66;66.50;100698.16;5009920;28;20034;-45
2023/07/29 05:29:46;;;;;;;6.93;2.65;;;;;;;22.22;67.95;100710.47;5010627;28;20030;-44
2023/07/29 05:32:12;;;;;;;6.40;2.40;;;;;;;22.33;67.83;100716.25;5010459;28;20057;-46
2023/07/29 05:34:37;;;;;;;5.72;2.50;;;;;;;22.35;68.21;100725.03;5010075;28;20058;-44
2023/07/29 05:37:03;;;;;;;6.18;2.42;;;;;;;22.46;67.30;100712.22;5010841;28;20116;-43
2023/07/29 05:39:28;;;;;;;4.55;2.50;;;;;;;22.79;67.03;100710.09;5010299;28;20045;-45
2023/07/29 05:41:54;;;;;;;5.25;2.53;;;;;;;22.70;66.81;100707.75;5010042;28;20029;-44
2023/07/29 05:44:19;;;;;;;9.43;3.05;;;;;;;22.69;66.94;100710.47;5010381;28;20041;-45
2023/07/29 05:46:45;;;;;;;6.95;2.50;;;;;;;22.79;66.47;100710.09;5010753;28;20030;-44
2023/07/29 05:49:10;;;;;;;4.20;2.30;;;;;;;22.91;66.17;100711.38;5010436;28;20060;-51
2023/07/29 05:51:35;;;;;;;6.45;2.60;;;;;;;22.69;66.80;100711.31;5009576;28;20041;-44
2023/07/29 05:54:01;;;;;;;5.25;2.10;;;;;;;22.70;66.61;100710.41;5010315;28;20129;-44
2023/07/29 05:56:26;;;;;;;6.45;2.33;;;;;;;22.59;67.25;100723.25;5009636;28;20128;-46
2023/07/29 05:58:51;;;;;;;6.38;2.63;;;;;;;22.64;67.09;100724.78;5010297;28;20038;-43
2023/07/29 06:01:17;;;;;;;7.75;2.47;;;;;;;22.75;67.38;100720.91;5009620;28;20536;-49
2023/07/29 06:03:42;;;;;;;5.85;2.50;;;;;;;22.81;67.23;100731.28;5009562;28;20444;-45
2023/07/29 06:06:08;;;;;;;8.98;5.50;;;;;;;22.90;66.70;100725.59;5010096;28;20060;-44
2023/07/29 06:08:34;;;;;;;7.18;3.50;;;;;;;22.85;67.56;100724.91;5009564;28;20062;-48
2023/07/29 06:11:00;;;;;;;8.23;2.75;;;;;;;22.81;67.75;100729.47;5009548;28;20046;-46
2023/07/29 06:13:25;;;;;;;5.97;2.50;;;;;;;23.04;66.79;100732.09;5009752;28;20404;-45
2023/07/29 06:15:50;;;;;;;6.32;2.25;;;;;;;22.53;68.13;100734.97;5009905;28;20033;-43
2023/07/29 06:18:16;;;;;;;5.25;2.05;;;;;;;22.93;67.31;100736.13;5010072;28;20117;-50
2023/07/29 06:20:41;;;;;;;6.75;2.13;;;;;;;23.05;67.45;100739.13;5009385;28;20137;-45
2023/07/29 06:23:08;;;;;;;4.88;2.05;;;;;;;23.05;67.14;100725.84;5009589;28;20133;-44
2023/07/29 06:25:33;;;;;;;6.32;1.95;;;;;;;23.30;66.77;100739.00;5008002;28;20500;-49
2023/07/29 06:27:58;;;;;;;5.32;1.85;;;;;;;23.30;66.63;100727.50;5009836;28;20041;-48
2023/07/29 06:30:23;;;;;;;4.20;1.80;;;;;;;23.13;67.21;100728.19;5009360;28;20116;-44
2023/07/29 06:32:49;;;;;;;4.50;1.95;;;;;;;23.04;67.53;100732.09;5009235;28;20124;-44
2023/07/29 06:35:14;;;;;;;4.75;2.20;;;;;;;23.10;67.81;100735.44;5009646;28;20068;-43
2023/07/29 06:37:39;;;;;;;4.28;2.20;;;;;;;23.09;68.59;100737.22;5010501;28;20167;-48
2023/07/29 06:40:05;;;;;;;6.80;2.25;;;;;;;22.61;70.98;100738.22;5013438;28;20034;-50
2023/07/29 06:42:31;;;;;;;5.75;2.30;;;;;;;22.92;70.19;100731.72;5012564;28;20049;-49
2023/07/29 06:44:56;;;;;;;5.20;1.73;;;;;;;23.08;70.32;100734.63;5013613;28;20030;-45
2023/07/29 06:47:21;;;;;;;4.18;1.75;;;;;;;23.44;69.16;100731.31;5028454;28;20463;-45
2023/07/29 06:49:47;;;;;;;5.97;1.70;;;;;;;23.71;68.42;100731.13;5013496;28;20527;-45
2023/07/29 06:52:12;;;;;;;4.72;1.60;;;;;;;24.21;67.96;100734.28;5012925;28;20026;-45
2023/07/29 06:54:37;;;;;;;5.70;1.70;;;;;;;24.71;65.13;100729.25;5012805;28;20030;-46
2023/07/29 06:57:03;;;;;;;6.25;1.77;;;;;;;25.07;61.87;100736.47;5013303;28;20121;-45
2023/07/29 06:59:28;;;;;;;7.07;1.73;;;;;;;25.18;62.78;100736.81;5012741;28;20061;-45
2023/07/29 07:01:54;;;;;;;4.25;1.52;;;;;;;25.82;60.50;100731.78;5013157;28;20447;-49
2023/07/29 07:04:20;;;;;;;5.35;1.70;;;;;;;25.74;58.67;100726.81;5012810;28;20045;-52
2023/07/29 07:06:45;;;;;;;6.05;1.70;;;;;;;26.67;57.46;100721.84;5013325;28;20400;-45
2023/07/29 07:09:10;;;;;;;5.82;1.58;;;;;;;27.00;55.93;100730.72;5013103;28;20064;-46
2023/07/29 07:11:36;;;;;;;5.50;1.40;;;;;;;27.42;54.19;100727.34;5012394;28;20066;-48
2023/07/29 07:14:01;;;;;;;5.28;1.48;;;;;;;27.67;51.76;100728.63;5013590;28;20065;-45
2023/07/29 07:16:29;;;;;;;5.88;1.52;;;;;;;27.62;51.52;100728.03;5013007;28;20117;-48
2023/07/29 07:18:54;;;;;;;7.75;1.50;;;;;;;28.90;47.39;100729.00;5013068;28;20092;-45
2023/07/29 07:21:19;;;;;;;3.30;1.30;;;;;;;30.02;43.78;100729.44;5012105;28;20508;-48
2023/07/29 07:23:45;;;;;;;4.47;1.38;;;;;;;28.53;44.60;100731.31;5012684;28;20112;-51
2023/07/29 07:26:10;;;;;;;3.03;1.38;;;;;;;29.04;42.92;100731.63;5012837;28;20453;-43
2023/07/29 07:28:35;;;;;;;3.95;1.50;;;;;;;28.00;44.71;100726.56;5012308;28;20563;-47
2023/07/29 07:31:01;;;;;;;3.45;1.42;;;;;;;26.78;48.67;100740.84;5012199;28;20058;-45
2023/07/29 07:33:27;;;;;;;3.80;1.50;;;;;;;25.52;51.03;100741.31;5012058;28;20131;-45
2023/07/29 07:35:52;;;;;;;4.05;1.60;;;;;;;25.28;49.72;100743.41;5012832;28;20026;-47
2023/07/29 07:38:17;;;;;;;3.50;1.30;;;;;;;24.86;52.42;100746.34;5012664;28;20057;-43
2023/07/29 07:40:53;;;;;;;4.30;1.40;;;;;;;25.40;50.17;100750.81;5012114;28;20030;-44
2023/07/29 07:43:18;;;;;;;5.15;1.45;;;;;;;24.60;51.59;100751.09;5012608;28;20056;-44
2023/07/29 07:45:43;;;;;;;2.22;1.50;;;;;;;24.75;53.14;100746.84;5012273;28;20496;-44
2023/07/29 07:48:10;;;;;;;6.22;1.75;;;;;;;24.74;52.43;100753.13;5012601;28;20038;-45
2023/07/29 07:50:35;;;;;;;5.50;1.67;;;;;;;24.55;53.73;100750.44;5011322;28;20562;-48
2023/07/29 07:53:00;;;;;;;4.18;1.55;;;;;;;24.55;54.33;100755.78;5012287;28;20068;-46
2023/07/29 07:55:26;;;;;;;2.80;1.60;;;;;;;24.55;54.67;100753.09;5012492;28;20129;-43
2023/07/29 07:57:52;;;;;;;2.55;1.35;;;;;;;25.25;52.89;100759.59;5012608;28;20121;-44
2023/07/29 08:00:19;;;;;;;4.35;1.70;;;;;;;25.20;53.57;100757.13;5012630;28;20050;-45
2023/07/29 08:02:44;;;;;;;4.53;1.88;;;;;;;25.77;52.42;100761.41;5011807;28;20902;-44
2023/07/29 08:05:10;;;;;;;4.55;1.40;;;;;;;26.89;49.55;100756.34;5012728;28;20116;-45
2023/07/29 08:07:35;;;;;;;6.30;1.50;;;;;;;27.46;48.29;100750.31;5011831;28;20096;-47
2023/07/29 08:10:00;;;;;;;6.90;1.60;;;;;;;28.14;43.32;100758.78;5011931;28;20057;-49
2023/07/29 08:12:26;;;;;;;6.72;1.55;;;;;;;28.03;45.75;100763.91;5011260;28;20116;-47
2023/07/29 08:14:51;;;;;;;8.50;2.08;;;;;;;27.49;45.84;100775.19;5012112;28;20022;-48
2023/07/29 08:17:16;;;;;;;5.43;1.40;;;;;;;27.67;45.66;100768.78;5011926;28;20096;-48
2023/07/29 08:19:42;;;;;;;4.85;1.80;;;;;;;27.24;45.19;100768.59;5011330;28;20045;-48
2023/07/29 08:22:07;;;;;;;4.25;1.50;;;;;;;28.21;43.77;100765.50;5011078;28;20034;-45
2023/07/29 08:24:33;;;;;;;6.00;1.70;;;;;;;27.49;45.96;100764.47;5011414;28;20034;-47
2023/07/29 08:26:59;;;;;;;4.15;1.90;;;;;;;26.62;48.47;100772.94;5011904;28;20048;-47
2023/07/29 08:29:24;;;;;;;3.05;1.92;;;;;;;25.79;50.08;100774.69;5011384;28;20120;-48
2023/07/29 08:31:51;;;;;;;7.03;1.70;;;;;;;25.71;52.32;100772.41;5011446;28;20034;-46
2023/07/29 08:34:16;;;;;;;4.63;1.52;;;;;;;25.66;52.67;100774.44;5011376;28;20026;-45
2023/07/29 08:36:42;;;;;;;3.47;1.63;;;;;;;25.46;51.63;100774.53;5011075;28;20040;-47
2023/07/29 08:39:07;;;;;;;3.38;1.48;;;;;;;25.16;52.42;100776.91;5011448;28;20046;-47
2023/07/29 08:41:40;;;;;;;4.60;1.70;;;;;;;25.32;51.32;100772.53;5010520;28;20099;-48
2023/07/29 08:44:24;;;;;;;4.32;1.58;;;;;;;24.57;52.18;100774.38;5011794;28;20033;-45
2023/07/29 08:46:51;;;;;;;4.75;1.60;;;;;;;24.76;53.05;100769.03;5011049;28;20126;-46
2023/07/29 08:49:19;;;;;;;5.63;1.73;;;;;;;24.90;52.86;100775.47;5011227;28;20030;-45
2023/07/29 08:51:46;;;;;;;4.95;1.80;;;;;;;24.96;52.93;100779.66;5010251;28;20041;-46
2023/07/29 08:54:12;;;;;;;3.67;1.65;;;;;;;25.22;52.35;100787.28;5011093;28;20037;-48
2023/07/29 08:56:38;;;;;;;7.38;1.88;;;;;;;25.15;52.76;100790.31;5010679;28;20056;-51
2023/07/29 08:59:04;;;;;;;5.05;1.80;;;;;;;25.29;51.16;100790.50;5010949;28;20500;-48
2023/07/29 09:01:30;;;;;;;6.65;1.77;;;;;;;25.34;51.42;100785.81;5009384;28;20560;-44
2023/07/29 09:03:56;;;;;;;4.30;1.58;;;;;;;24.72;53.34;100786.97;5009434;28;20117;-45
2023/07/29 09:06:23;;;;;;;3.70;1.90;;;;;;;25.07;53.57;100789.84;5010708;28;20072;-45
2023/07/29 09:08:51;;;;;;;5.70;2.00;;;;;;;25.33;53.54;100798.28;5010922;28;20036;-46
2023/07/29 09:11:17;;;;;;;6.32;2.78;;;;;;;24.14;60.85;100794.03;5010496;28;20497;-43
2023/07/29 09:13:43;;;;;;;6.00;2.60;;;;;;;24.19;61.57;100800.94;5010464;28;20026;-45
2023/07/29 09:16:09;;;;;;;9.00;3.10;;;;;;;23.49;65.44;100802.13;5010674;28;20034;-48
2023/07/29 09:18:34;;;;;;;7.78;2.85;;;;;;;23.36;66.65;100799.94;5010334;28;20029;-45
2023/07/29 09:21:03;;;;;;;7.53;3.25;;;;;;;23.44;67.66;100789.88;5010223;28;20552;-46
2023/07/29 09:23:28;;;;;;;11.63;2.83;;;;;;;23.84;67.60;100798.91;5010198;28;20038;-44
2023/07/29 09:26:03;;;;;;;5.45;2.63;;;;;;;24.30;67.53;100791.59;5010510;28;20083;-43
2023/07/29 09:28:34;;;;;;;8.02;3.10;;;;;;;24.27;66.38;100793.44;5010277;28;20072;-46
2023/07/29 09:30:59;;;;;;;5.80;2.80;;;;;;;24.59;65.87;100804.47;5010101;28;20058;-48
2023/07/29 09:33:29;;;;;;;6.55;3.20;;;;;;;24.92;63.04;100791.41;5009951;28;20519;-49
2023/07/29 09:35:54;;;;;;;6.40;2.95;;;;;;;24.74;62.46;100803.78;5009369;28;20069;-45
2023/07/29 09:38:26;;;;;;;5.88;2.70;;;;;;;24.56;64.36;100784.16;5009913;28;20508;-49
2023/07/29 09:40:55;;;;;;;5.82;2.72;;;;;;;25.09;62.82;100780.81;5009831;28;20097;-44
2023/07/29 09:43:25;;;;;;;5.50;2.53;;;;;;;25.15;61.87;100782.31;5009966;28;20042;-43
2023/07/29 09:45:51;;;;;;;6.45;2.67;;;;;;;25.04;61.41;100783.69;5010422;28;20034;-43
2023/07/29 09:48:22;;;;;;;6.00;2.80;;;;;;;25.29;62.25;100786.03;5010746;28;20049;-45
2023/07/29 09:50:47;;;;;;;10.05;3.10;;;;;;;25.23;60.65;100789.00;5009385;28;20170;-45
2023/07/29 09:53:14;;;;;;;5.47;3.50;;;;;;;24.56;63.08;100786.81;5010136;28;20118;-45
2023/07/29 09:55:39;;;;;;;5.63;2.92;;;;;;;25.14;62.36;100786.78;5009755;28;20030;-45
2023/07/29 09:58:07;;;;;;;7.50;3.13;;;;;;;24.77;62.96;100776.09;5010414;28;20026;-52
2023/07/29 10:00:33;;;;;;;7.43;3.10;;;;;;;24.70;62.25;100780.88;5009284;28;20045;-47
2023/07/29 10:02:59;;;;;;;6.43;2.80;;;;;;;24.89;61.58;100780.88;5009610;28;20045;-48
2023/07/29 10:05:28;;;;;;;3.97;2.40;;;;;;;24.42;61.63;100785.72;5009603;28;20124;-49
2023/07/29 10:07:54;;;;;;;5.50;2.28;;;;;;;24.40;62.21;100788.44;5010146;28;20057;-44
2023/07/29 10:10:20;;;;;;;4.05;2.20;;;;;;;24.61;61.72;100797.28;5009553;28;20044;-49
2023/07/29 10:12:46;;;;;;;5.55;2.50;;;;;;;24.76;61.10;100796.56;5009118;28;20034;-45
2023/07/29 10:15:12;;;;;;;5.93;2.10;;;;;;;24.45;61.39;100805.09;5009958;28;20029;-45
2023/07/29 10:17:39;;;;;;;5.78;2.15;;;;;;;24.09;63.03;100806.69;5009309;28;20041;-45
2023/07/29 10:20:09;;;;;;;4.13;1.80;;;;;;;24.34;63.05;100811.81;5009762;28;20061;-45
2023/07/29 10:22:39;;;;;;;4.68;1.80;;;;;;;24.34;63.68;100815.34;5008927;28;20125;-46
2023/07/29 10:25:09;;;;;;;4.40;1.73;;;;;;;24.27;64.38;100818.38;5009701;28;20053;-46
2023/07/29 10:27:42;;;;;;;3.97;1.67;;;;;;;24.44;64.17;100824.69;5009200;28;20034;-49
2023/07/29 10:30:10;;;;;;;3.83;1.60;;;;;;;24.45;63.25;100818.44;5009858;28;20030;-49
2023/07/29 10:32:36;;;;;;;4.53;1.42;;;;;;;24.53;62.28;100810.06;5008946;28;20041;-46
2023/07/29 10:35:02;;;;;;;3.65;1.50;;;;;;;24.43;62.24;100811.44;5009630;28;20053;-49
2023/07/29 10:37:27;;;;;;;4.03;1.30;;;;;;;24.49;62.56;100811.16;5009135;28;20204;-44
2023/07/29 10:39:54;;;;;;;5.30;1.02;;;;;;;24.69;62.79;100813.78;5009368;28;20041;-47
2023/07/29 10:42:20;;;;;;;1.20;0.90;;;;;;;24.65;61.23;100815.72;5009621;28;20713;-46
2023/07/29 10:44:49;;;;;;;2.22;0.80;;;;;;;25.04;60.15;100815.69;5010730;28;20584;-43
2023/07/29 10:47:15;;;;;;;2.63;0.80;;;;;;;24.47;60.56;100813.00;5010551;28;20029;-43
2023/07/29 10:49:44;;;;;;;1.90;0.80;;;;;;;24.79;60.99;100806.22;5009213;28;20117;-46
2023/07/29 10:52:15;;;;;;;1.77;0.80;;;;;;;24.81;61.41;100812.34;5009061;28;20083;-43
2023/07/29 10:54:48;;;;;;;1.77;0.90;;;;;;;24.89;61.29;100810.22;5007485;28;20120;-47
2023/07/29 10:57:15;;;;;;;3.72;0.77;;;;;;;25.31;61.21;100800.16;5009380;28;20046;-45
2023/07/29 10:59:41;;;;;;;1.80;0.77;;;;;;;25.41;60.47;100804.13;5008775;28;20068;-45
2023/07/29 11:02:17;;;;;;;1.73;0.90;;;;;;;25.59;60.83;100804.19;5009592;28;20037;-45
2023/07/29 11:04:48;;;;;;;2.60;0.90;;;;;;;25.84;57.45;100802.88;5009947;28;20041;-50
2023/07/29 11:07:13;;;;;;;1.42;0.90;;;;;;;26.42;55.41;100789.16;5009304;28;20065;-50
2023/07/29 11:09:48;;;;;;;1.95;1.02;;;;;;;26.55;57.52;100792.91;5009555;28;20034;-46
2023/07/29 11:12:50;;;;;;;2.28;1.20;;;;;;;25.92;57.89;100789.16;5008983;28;20030;-47
2023/07/29 11:15:18;;;;;;;2.67;1.50;;;;;;;26.55;56.65;100776.88;5009378;28;20095;-45
2023/07/29 11:17:48;;;;;;;3.95;1.40;;;;;;;26.70;53.93;100779.66;5009824;28;20149;-49
2023/07/29 11:20:15;;;;;;;3.83;1.70;;;;;;;25.79;59.74;100788.03;5009275;28;20084;-46
2023/07/29 11:22:41;;;;;;;3.45;1.80;;;;;;;25.59;60.31;100785.50;5008617;28;20411;-47